Time;durP1;ratioP1;P1;durP2;ratioP2;P2;SDS_P1;SDS_P2;PMS_P1;PMS_P2;Temp;Humidity;BMP_temperature;BMP_pressure;BME280_temperature;BME280_humidity;BME280_pressure;Samples;Min_cycle;Max_cycle;Signal;HPM_P1;HPM_P2
2023/10/23 00:00:29;;;;;;;7.47;4.03;;;;;;;;;;2609858;54;20958;-74
2023/10/23 00:02:56;;;;;;;6.23;3.93;;;;;;;;;;2609371;54;20419;-72
2023/10/23 00:05:22;;;;;;;4.10;3.30;;;;;;;;;;2609699;54;21416;-72
2023/10/23 00:07:50;;;;;;;6.67;4.13;;;;;;;;;;2609964;54;20396;-73
2023/10/23 00:10:16;;;;;;;5.50;3.97;;;;;;;;;;2610287;54;20423;-73
2023/10/23 00:12:42;;;;;;;10.60;4.10;;;;;;;;;;2608951;54;20427;-74
2023/10/23 00:15:08;;;;;;;5.00;3.90;;;;;;;;;;2609060;54;20972;-73
2023/10/23 00:17:34;;;;;;;5.77;3.70;;;;;;;;;;2608727;54;20406;-73
2023/10/23 00:20:03;;;;;;;6.57;4.40;;;;;;;;;;2608230;54;20423;-74
2023/10/23 00:22:29;;;;;;;6.43;3.90;;;;;;;;;;2608878;54;20392;-74
2023/10/23 00:24:56;;;;;;;8.90;4.00;;;;;;;;;;2608975;47;20426;-73
2023/10/23 00:27:23;;;;;;;9.97;4.00;;;;;;;;;;2608956;54;20506;-73
2023/10/23 00:29:49;;;;;;;6.43;3.77;;;;;;;;;;2608537;54;20430;-73
2023/10/23 00:32:15;;;;;;;6.70;3.77;;;;;;;;;;2608510;54;20399;-72
2023/10/23 00:34:41;;;;;;;6.83;4.40;;;;;;;;;;2608754;54;20535;-74
2023/10/23 00:37:07;;;;;;;5.90;3.10;;;;;;;;;;2608692;47;20443;-73
2023/10/23 00:39:33;;;;;;;4.80;3.30;;;;;;;;;;2608622;46;20534;-73
2023/10/23 00:41:59;;;;;;;9.43;3.67;;;;;;;;;;2608402;54;20427;-73
2023/10/23 00:44:27;;;;;;;5.90;3.40;;;;;;;;;;2608724;54;20411;-73
2023/10/23 00:46:53;;;;;;;7.30;3.33;;;;;;;;;;2609366;54;20419;-73
2023/10/23 00:49:21;;;;;;;5.67;3.50;;;;;;;;;;2610294;54;20399;-73
2023/10/23 00:51:47;;;;;;;7.30;3.37;;;;;;;;;;2609653;54;21036;-73
2023/10/23 00:54:14;;;;;;;6.20;3.80;;;;;;;;;;2608943;47;21329;-75
2023/10/23 00:56:41;;;;;;;4.20;3.40;;;;;;;;;;2609134;54;20840;-75
2023/10/23 00:59:08;;;;;;;6.40;3.70;;;;;;;;;;2609132;54;20399;-74
2023/10/23 01:01:34;;;;;;;5.20;3.10;;;;;;;;;;2608487;54;20478;-74
2023/10/23 01:04:00;;;;;;;7.10;3.53;;;;;;;;;;2608949;47;20435;-74
2023/10/23 01:06:28;;;;;;;7.47;3.83;;;;;;;;;;2609307;54;20499;-75
2023/10/23 01:08:54;;;;;;;7.67;4.30;;;;;;;;;;2610394;39;20451;-75
2023/10/23 01:11:20;;;;;;;5.97;3.70;;;;;;;;;;2608019;47;20422;-75
2023/10/23 01:13:46;;;;;;;8.53;3.57;;;;;;;;;;2609108;54;20484;-75
2023/10/23 01:16:12;;;;;;;4.60;3.20;;;;;;;;;;2608592;54;21197;-75
2023/10/23 01:18:38;;;;;;;6.60;3.60;;;;;;;;;;2609272;54;20394;-75
2023/10/23 01:21:04;;;;;;;8.97;3.77;;;;;;;;;;2609468;39;20935;-75
2023/10/23 01:23:33;;;;;;;6.70;3.40;;;;;;;;;;2611595;39;20820;-73
2023/10/23 01:26:00;;;;;;;5.93;3.63;;;;;;;;;;2611018;54;20434;-72
2023/10/23 01:28:26;;;;;;;4.27;3.40;;;;;;;;;;2610128;54;20411;-73
2023/10/23 01:30:52;;;;;;;7.13;3.63;;;;;;;;;;2610741;47;20430;-73
2023/10/23 01:33:18;;;;;;;7.90;4.27;;;;;;;;;;2610542;54;20422;-74
2023/10/23 01:35:44;;;;;;;7.33;4.10;;;;;;;;;;2610891;54;20450;-73
2023/10/23 01:38:11;;;;;;;5.43;3.87;;;;;;;;;;2610359;54;20447;-72
2023/10/23 01:40:39;;;;;;;8.47;3.63;;;;;;;;;;2610833;54;20407;-73
2023/10/23 01:43:05;;;;;;;8.40;4.40;;;;;;;;;;2610140;54;20407;-72
2023/10/23 01:45:31;;;;;;;6.87;4.03;;;;;;;;;;2610858;54;20453;-73
2023/10/23 01:47:57;;;;;;;8.13;4.20;;;;;;;;;;2609593;54;20961;-74
2023/10/23 01:50:24;;;;;;;10.97;4.13;;;;;;;;;;2610639;47;20466;-73
2023/10/23 01:52:50;;;;;;;6.73;3.50;;;;;;;;;;2611911;54;20431;-73
2023/10/23 01:55:16;;;;;;;9.00;4.37;;;;;;;;;;2611549;54;20400;-74
2023/10/23 01:57:42;;;;;;;7.83;4.57;;;;;;;;;;2612171;54;20435;-72
2023/10/23 02:00:10;;;;;;;7.17;4.20;;;;;;;;;;2610860;49;20454;-73
2023/10/23 02:02:36;;;;;;;7.40;3.87;;;;;;;;;;2611427;54;20535;-74
2023/10/23 02:05:03;;;;;;;10.43;4.97;;;;;;;;;;2610449;54;20396;-74
2023/10/23 02:07:29;;;;;;;7.37;5.00;;;;;;;;;;2610933;54;20399;-75
2023/10/23 02:09:56;;;;;;;11.63;4.40;;;;;;;;;;2611722;46;20516;-75
2023/10/23 02:12:23;;;;;;;8.30;4.27;;;;;;;;;;2610367;54;20444;-76
2023/10/23 02:14:52;;;;;;;10.63;3.57;;;;;;;;;;2610998;54;20407;-75
2023/10/23 02:17:18;;;;;;;6.27;4.03;;;;;;;;;;2611543;54;20435;-77
2023/10/23 02:19:44;;;;;;;6.93;4.13;;;;;;;;;;2609569;54;20439;-74
2023/10/23 02:22:11;;;;;;;5.70;3.77;;;;;;;;;;2610315;54;20419;-74
2023/10/23 02:24:37;;;;;;;6.73;4.10;;;;;;;;;;2610917;54;20419;-75
2023/10/23 02:27:03;;;;;;;5.30;3.87;;;;;;;;;;2610740;54;20610;-75
2023/10/23 02:29:29;;;;;;;6.63;4.47;;;;;;;;;;2611030;54;20459;-75
2023/10/23 02:31:55;;;;;;;13.80;5.77;;;;;;;;;;2610432;54;20478;-74
2023/10/23 02:34:21;;;;;;;7.60;4.00;;;;;;;;;;2610119;54;20411;-75
2023/10/23 02:36:47;;;;;;;9.83;4.30;;;;;;;;;;2611190;54;20803;-76
2023/10/23 02:39:14;;;;;;;8.30;4.70;;;;;;;;;;2610914;54;20423;-75
2023/10/23 02:41:40;;;;;;;9.93;4.90;;;;;;;;;;2611016;39;21173;-75
2023/10/23 02:44:06;;;;;;;5.67;4.20;;;;;;;;;;2610813;54;20428;-75
2023/10/23 02:46:35;;;;;;;5.00;3.70;;;;;;;;;;2611188;54;20957;-75
2023/10/23 02:49:02;;;;;;;7.60;5.27;;;;;;;;;;2610143;54;21039;-74
2023/10/23 02:51:28;;;;;;;7.57;4.80;;;;;;;;;;2611380;54;20482;-75
2023/10/23 02:53:55;;;;;;;10.20;5.07;;;;;;;;;;2611305;54;20406;-76
2023/10/23 02:56:21;;;;;;;12.93;4.97;;;;;;;;;;2610912;54;20420;-76
2023/10/23 02:58:47;;;;;;;10.33;5.07;;;;;;;;;;2611449;39;20836;-76
2023/10/23 03:01:14;;;;;;;7.67;4.23;;;;;;;;;;2610689;54;20433;-75
2023/10/23 03:03:40;;;;;;;6.10;4.50;;;;;;;;;;2610860;54;20462;-75
2023/10/23 03:06:06;;;;;;;7.50;5.30;;;;;;;;;;2610925;54;20430;-75
2023/10/23 03:08:32;;;;;;;8.30;5.33;;;;;;;;;;2610508;54;20423;-75
2023/10/23 03:10:58;;;;;;;7.93;4.60;;;;;;;;;;2610750;39;20972;-75
2023/10/23 03:13:34;;;;;;;6.00;4.70;;;;;;;;;;2611555;54;20554;-73
2023/10/23 03:16:16;;;;;;;7.83;5.40;;;;;;;;;;2616692;54;20442;-73
2023/10/23 03:19:00;;;;;;;9.10;4.93;;;;;;;;;;2616086;54;21035;-73
2023/10/23 03:21:26;;;;;;;8.13;4.67;;;;;;;;;;2616543;54;20453;-72
2023/10/23 03:24:03;;;;;;;12.60;5.30;;;;;;;;;;2616199;54;20437;-72
2023/10/23 03:26:31;;;;;;;7.30;4.37;;;;;;;;;;2615522;54;20406;-73
2023/10/23 03:29:04;;;;;;;8.80;4.93;;;;;;;;;;2616674;54;20419;-73
2023/10/23 03:31:42;;;;;;;11.07;5.10;;;;;;;;;;2616098;47;20458;-73
2023/10/23 03:34:12;;;;;;;6.20;5.03;;;;;;;;;;2616237;47;20410;-72
2023/10/23 03:36:38;;;;;;;11.10;5.53;;;;;;;;;;2616514;54;20430;-73
2023/10/23 03:39:04;;;;;;;8.03;5.30;;;;;;;;;;2616573;54;20430;-73
2023/10/23 03:41:42;;;;;;;10.57;4.93;;;;;;;;;;2616183;54;20467;-73
2023/10/23 03:44:11;;;;;;;4.90;4.13;;;;;;;;;;2615730;47;20402;-73
2023/10/23 03:46:48;;;;;;;13.17;5.50;;;;;;;;;;2615889;47;20427;-73
2023/10/23 03:49:14;;;;;;;5.53;4.13;;;;;;;;;;2616230;47;20417;-74
2023/10/23 03:51:56;;;;;;;6.40;4.70;;;;;;;;;;2615695;47;20981;-74
2023/10/23 03:54:24;;;;;;;7.40;4.80;;;;;;;;;;2615724;47;20413;-73
2023/10/23 03:56:51;;;;;;;5.27;4.77;;;;;;;;;;2615987;47;20470;-72
2023/10/23 03:59:17;;;;;;;10.70;4.97;;;;;;;;;;2616252;54;20414;-72
2023/10/23 04:01:45;;;;;;;11.90;5.73;;;;;;;;;;2615634;47;21008;-73
2023/10/23 04:04:14;;;;;;;5.30;4.50;;;;;;;;;;2616101;39;20907;-73
2023/10/23 04:06:41;;;;;;;9.33;5.20;;;;;;;;;;2615569;47;21040;-73
2023/10/23 04:09:13;;;;;;;5.73;5.17;;;;;;;;;;2615692;54;20457;-74
2023/10/23 04:11:39;;;;;;;7.90;5.50;;;;;;;;;;2616264;54;20420;-72
2023/10/23 04:14:06;;;;;;;6.70;5.73;;;;;;;;;;2616314;54;20442;-73
2023/10/23 04:16:39;;;;;;;6.97;5.30;;;;;;;;;;2616845;39;20783;-73
2023/10/23 04:19:05;;;;;;;10.00;5.17;;;;;;;;;;2615519;47;20424;-73
2023/10/23 04:21:36;;;;;;;7.80;5.30;;;;;;;;;;2616070;54;20391;-73
2023/10/23 04:24:03;;;;;;;7.83;5.63;;;;;;;;;;2614805;47;20411;-73
2023/10/23 04:26:31;;;;;;;6.67;5.27;;;;;;;;;;2615602;47;21394;-74
2023/10/23 04:28:59;;;;;;;7.67;5.63;;;;;;;;;;2614156;46;20435;-79
2023/10/23 04:31:27;;;;;;;6.43;4.73;;;;;;;;;;2614649;39;20932;-74
2023/10/23 04:33:55;;;;;;;8.40;5.60;;;;;;;;;;2614971;47;20950;-73
2023/10/23 04:36:22;;;;;;;6.87;4.77;;;;;;;;;;2615873;54;20423;-73
2023/10/23 04:38:48;;;;;;;10.77;4.67;;;;;;;;;;2611933;47;20486;-77
2023/10/23 04:41:14;;;;;;;8.00;5.30;;;;;;;;;;2613399;54;20415;-74
2023/10/23 04:43:50;;;;;;;7.43;5.20;;;;;;;;;;2615442;54;20427;-73
2023/10/23 04:46:22;;;;;;;7.47;4.57;;;;;;;;;;2615711;39;20786;-73
2023/10/23 04:48:48;;;;;;;6.63;5.27;;;;;;;;;;2615066;54;20946;-74
2023/10/23 04:51:20;;;;;;;6.50;5.50;;;;;;;;;;2615829;39;20785;-73
2023/10/23 04:53:48;;;;;;;6.03;4.73;;;;;;;;;;2615172;47;20434;-72
2023/10/23 04:56:15;;;;;;;8.50;6.13;;;;;;;;;;2614860;54;20407;-74
2023/10/23 04:58:43;;;;;;;10.60;6.27;;;;;;;;;;2614743;47;20435;-72
2023/10/23 05:01:26;;;;;;;7.63;5.60;;;;;;;;;;2615107;54;20412;-74
2023/10/23 05:03:53;;;;;;;7.90;6.17;;;;;;;;;;2615674;46;20441;-73
2023/10/23 05:06:25;;;;;;;12.40;5.37;;;;;;;;;;2616074;54;20415;-73
2023/10/23 05:08:51;;;;;;;8.20;6.60;;;;;;;;;;2616502;39;20818;-72
2023/10/23 05:11:19;;;;;;;11.13;6.13;;;;;;;;;;2615314;51;20427;-73
2023/10/23 05:13:54;;;;;;;12.50;6.17;;;;;;;;;;2616340;54;20395;-72
2023/10/23 05:16:24;;;;;;;8.53;6.50;;;;;;;;;;2616330;54;20403;-73
2023/10/23 05:18:51;;;;;;;10.40;5.50;;;;;;;;;;2615978;47;20418;-73
2023/10/23 05:21:19;;;;;;;8.70;5.60;;;;;;;;;;2615816;47;21305;-73
2023/10/23 05:23:50;;;;;;;12.60;5.87;;;;;;;;;;2615916;54;20991;-72
2023/10/23 05:26:26;;;;;;;14.73;6.50;;;;;;;;;;2616735;54;20996;-72
2023/10/23 05:29:09;;;;;;;6.60;5.63;;;;;;;;;;2617039;54;20957;-73
2023/10/23 05:31:37;;;;;;;9.53;6.50;;;;;;;;;;2617087;54;20431;-72
2023/10/23 05:34:07;;;;;;;9.63;5.97;;;;;;;;;;2616403;54;20487;-72
2023/10/23 05:36:33;;;;;;;10.53;6.37;;;;;;;;;;2617041;54;20403;-73
2023/10/23 05:38:59;;;;;;;7.40;5.67;;;;;;;;;;2616668;54;20469;-72
2023/10/23 05:41:33;;;;;;;9.17;6.43;;;;;;;;;;2616250;47;20944;-72
2023/10/23 05:44:00;;;;;;;10.30;6.87;;;;;;;;;;2616957;54;20474;-73
2023/10/23 05:46:27;;;;;;;12.10;7.83;;;;;;;;;;2617079;54;20526;-73
2023/10/23 05:48:57;;;;;;;11.90;8.57;;;;;;;;;;2616450;54;20398;-73
2023/10/23 05:51:25;;;;;;;9.30;7.10;;;;;;;;;;2615896;47;20392;-74
2023/10/23 05:54:00;;;;;;;15.83;7.30;;;;;;;;;;2616470;39;20779;-73
2023/10/23 05:56:36;;;;;;;9.90;6.60;;;;;;;;;;2616033;47;20422;-73
2023/10/23 05:59:03;;;;;;;15.17;8.10;;;;;;;;;;2616060;54;20400;-73
2023/10/23 06:01:30;;;;;;;15.63;8.07;;;;;;;;;;2616188;54;20594;-73
2023/10/23 06:03:57;;;;;;;16.43;8.83;;;;;;;;;;2614917;47;20472;-73
2023/10/23 06:06:23;;;;;;;9.83;8.20;;;;;;;;;;2616733;54;20420;-73
2023/10/23 06:09:13;;;;;;;12.43;7.67;;;;;;;;;;2616714;47;20535;-74
2023/10/23 06:11:41;;;;;;;10.83;7.70;;;;;;;;;;2616004;46;20435;-74
2023/10/23 06:14:18;;;;;;;8.90;6.70;;;;;;;;;;2616103;54;20393;-74
2023/10/23 06:16:44;;;;;;;9.20;7.10;;;;;;;;;;2616827;54;20404;-74
2023/10/23 06:19:12;;;;;;;10.37;6.80;;;;;;;;;;2616068;47;20436;-74
2023/10/23 06:21:38;;;;;;;11.90;6.57;;;;;;;;;;2616286;54;20391;-74
2023/10/23 06:24:15;;;;;;;16.43;7.50;;;;;;;;;;2616635;54;20473;-73
2023/10/23 06:26:41;;;;;;;10.10;7.10;;;;;;;;;;2616291;47;20449;-74
2023/10/23 06:29:24;;;;;;;10.10;7.40;;;;;;;;;;2617133;39;20793;-74
2023/10/23 06:31:52;;;;;;;8.80;7.50;;;;;;;;;;2616683;54;20426;-74
2023/10/23 06:34:19;;;;;;;10.70;7.80;;;;;;;;;;2616313;47;20462;-73
2023/10/23 06:36:49;;;;;;;16.83;6.93;;;;;;;;;;2616010;47;20538;-74
2023/10/23 06:39:16;;;;;;;14.30;8.70;;;;;;;;;;2617003;54;20546;-74
2023/10/23 06:41:55;;;;;;;9.80;7.03;;;;;;;;;;2616108;47;20383;-74
2023/10/23 06:44:24;;;;;;;15.07;8.73;;;;;;;;;;2616798;54;20424;-74
2023/10/23 06:46:52;;;;;;;11.70;8.70;;;;;;;;;;2616281;47;20399;-73
2023/10/23 06:49:21;;;;;;;14.23;8.73;;;;;;;;;;2616823;54;20890;-73
2023/10/23 06:51:50;;;;;;;16.33;10.13;;;;;;;;;;2616254;47;20419;-73
2023/10/23 06:54:27;;;;;;;12.07;8.50;;;;;;;;;;2616867;54;20424;-73
2023/10/23 06:57:24;;;;;;;12.07;8.00;;;;;;;;;;2616750;54;20515;-73
2023/10/23 06:59:51;;;;;;;13.33;8.33;;;;;;;;;;2616521;54;20473;-73
2023/10/23 07:02:21;;;;;;;9.40;7.90;;;;;;;;;;2615823;54;20420;-73
2023/10/23 07:04:47;;;;;;;14.10;8.60;;;;;;;;;;2617155;54;20394;-73
2023/10/23 07:07:15;;;;;;;13.50;8.27;;;;;;;;;;2616297;47;20541;-73
2023/10/23 07:09:58;;;;;;;15.13;8.10;;;;;;;;;;2616712;39;20812;-73
2023/10/23 07:12:25;;;;;;;12.07;6.90;;;;;;;;;;2616034;47;20418;-73
2023/10/23 07:14:52;;;;;;;13.93;7.47;;;;;;;;;;2616392;46;20433;-73
2023/10/23 07:17:18;;;;;;;10.70;7.33;;;;;;;;;;2616925;54;20546;-74
2023/10/23 07:19:49;;;;;;;11.23;7.80;;;;;;;;;;2616321;47;20371;-72
2023/10/23 07:22:15;;;;;;;8.70;7.03;;;;;;;;;;2616199;46;20396;-73
2023/10/23 07:24:42;;;;;;;12.33;8.07;;;;;;;;;;2616209;47;20539;-73
2023/10/23 07:27:26;;;;;;;10.43;8.27;;;;;;;;;;2616690;54;20411;-73
2023/10/23 07:30:03;;;;;;;11.63;8.57;;;;;;;;;;2615733;54;20389;-73
2023/10/23 07:32:36;;;;;;;9.30;8.20;;;;;;;;;;2615580;47;20387;-74
2023/10/23 07:35:11;;;;;;;10.43;8.87;;;;;;;;;;2616417;54;20412;-74
2023/10/23 07:37:38;;;;;;;9.70;8.70;;;;;;;;;;2615733;46;20431;-74
2023/10/23 07:40:09;;;;;;;8.70;7.80;;;;;;;;;;2616157;54;20410;-74
2023/10/23 07:42:35;;;;;;;11.83;8.17;;;;;;;;;;2616162;54;20407;-74
2023/10/23 07:45:11;;;;;;;13.57;8.97;;;;;;;;;;2615979;54;20436;-74
2023/10/23 07:47:37;;;;;;;14.07;10.17;;;;;;;;;;2615488;54;20546;-73
2023/10/23 07:50:04;;;;;;;11.50;9.53;;;;;;;;;;2616023;46;20464;-73
2023/10/23 07:52:32;;;;;;;10.40;9.40;;;;;;;;;;2615677;54;20968;-74
2023/10/23 07:55:00;;;;;;;11.93;9.40;;;;;;;;;;2615929;54;20421;-74
2023/10/23 07:57:30;;;;;;;10.63;9.63;;;;;;;;;;2615372;54;20416;-74
2023/10/23 08:00:06;;;;;;;10.90;9.00;;;;;;;;;;2615486;47;20448;-74
2023/10/23 08:02:36;;;;;;;11.40;9.83;;;;;;;;;;2615183;47;20407;-74
2023/10/23 08:05:02;;;;;;;8.60;7.00;;;;;;;;;;2614280;39;20887;-73
2023/10/23 08:07:29;;;;;;;9.20;8.30;;;;;;;;;;2612270;39;20944;-74
2023/10/23 08:09:55;;;;;;;7.87;7.13;;;;;;;;;;2612593;54;20443;-73
2023/10/23 08:12:21;;;;;;;9.20;7.87;;;;;;;;;;2612216;54;20423;-73
2023/10/23 08:14:47;;;;;;;9.20;8.30;;;;;;;;;;2611770;47;20430;-73
2023/10/23 08:17:13;;;;;;;6.37;5.77;;;;;;;;;;2612095;54;20411;-75
2023/10/23 08:19:39;;;;;;;6.73;6.13;;;;;;;;;;2612541;54;20399;-73
2023/10/23 08:22:05;;;;;;;7.97;6.13;;;;;;;;;;2612376;54;20417;-73
2023/10/23 08:24:31;;;;;;;6.70;6.00;;;;;;;;;;2612593;54;20437;-73
2023/10/23 08:26:58;;;;;;;7.93;6.27;;;;;;;;;;2612650;54;20423;-74
2023/10/23 08:29:24;;;;;;;11.03;6.37;;;;;;;;;;2611910;54;20416;-74
2023/10/23 08:31:50;;;;;;;12.90;7.47;;;;;;;;;;2612511;54;20402;-72
2023/10/23 08:34:20;;;;;;;7.70;5.83;;;;;;;;;;2611848;54;20420;-73
2023/10/23 08:36:47;;;;;;;7.80;6.57;;;;;;;;;;2612231;54;20393;-73
2023/10/23 08:39:13;;;;;;;9.93;6.57;;;;;;;;;;2611777;46;20486;-71
2023/10/23 08:41:39;;;;;;;7.63;6.87;;;;;;;;;;2611891;39;20912;-73
2023/10/23 08:44:07;;;;;;;7.00;6.40;;;;;;;;;;2612294;54;20388;-73
2023/10/23 08:46:34;;;;;;;14.03;6.67;;;;;;;;;;2612146;54;20418;-73
2023/10/23 08:49:03;;;;;;;7.43;6.73;;;;;;;;;;2612215;54;20443;-73
2023/10/23 08:51:32;;;;;;;10.50;7.27;;;;;;;;;;2612163;54;20515;-74
2023/10/23 08:54:05;;;;;;;9.93;7.57;;;;;;;;;;2612195;54;20554;-73
2023/10/23 08:56:32;;;;;;;10.70;9.63;;;;;;;;;;2611469;54;20623;-74
2023/10/23 08:59:00;;;;;;;7.57;6.87;;;;;;;;;;2612436;54;20387;-73
2023/10/23 09:01:27;;;;;;;8.47;7.70;;;;;;;;;;2612399;54;20433;-73
2023/10/23 09:03:54;;;;;;;8.30;7.30;;;;;;;;;;2612679;54;20423;-74
2023/10/23 09:06:22;;;;;;;7.40;6.70;;;;;;;;;;2615998;54;20425;-74
2023/10/23 09:09:00;;;;;;;8.27;7.40;;;;;;;;;;2615539;54;20487;-74
2023/10/23 09:11:46;;;;;;;7.87;7.10;;;;;;;;;;2616244;54;20434;-72
2023/10/23 09:14:47;;;;;;;8.40;7.60;;;;;;;;;;2615495;54;20410;-72
2023/10/23 09:17:13;;;;;;;9.23;7.90;;;;;;;;;;2614727;54;20399;-74
2023/10/23 09:19:41;;;;;;;9.40;8.50;;;;;;;;;;2614236;54;20437;-74
2023/10/23 09:22:07;;;;;;;10.67;8.03;;;;;;;;;;2613950;54;20453;-74
2023/10/23 09:24:36;;;;;;;8.30;7.50;;;;;;;;;;2613915;54;20438;-74
2023/10/23 09:27:04;;;;;;;9.90;7.17;;;;;;;;;;2613658;54;20495;-73
2023/10/23 09:29:30;;;;;;;7.87;7.07;;;;;;;;;;2614145;54;20546;-74
2023/10/23 09:31:58;;;;;;;8.50;7.67;;;;;;;;;;2613661;47;20406;-74
2023/10/23 09:34:24;;;;;;;8.13;7.33;;;;;;;;;;2613859;54;20421;-74
2023/10/23 09:36:51;;;;;;;8.63;7.00;;;;;;;;;;2614022;39;20842;-73
2023/10/23 09:39:18;;;;;;;8.50;7.73;;;;;;;;;;2613281;47;20469;-73
2023/10/23 09:41:53;;;;;;;9.57;7.60;;;;;;;;;;2613253;46;20420;-73
2023/10/23 09:44:19;;;;;;;8.73;8.00;;;;;;;;;;2613488;47;20440;-73
2023/10/23 09:46:47;;;;;;;8.27;7.77;;;;;;;;;;2613266;54;20419;-75
2023/10/23 09:49:15;;;;;;;8.37;7.67;;;;;;;;;;2613344;54;21001;-74
2023/10/23 09:51:41;;;;;;;8.77;7.87;;;;;;;;;;2613718;54;20510;-74
2023/10/23 09:54:08;;;;;;;8.00;7.40;;;;;;;;;;2614318;47;20962;-74
2023/10/23 09:56:36;;;;;;;8.00;7.37;;;;;;;;;;2615007;54;20406;-73
2023/10/23 09:59:04;;;;;;;8.30;7.60;;;;;;;;;;2613972;47;20423;-74
2023/10/23 10:01:42;;;;;;;8.40;7.80;;;;;;;;;;2614729;54;20446;-73
2023/10/23 10:04:13;;;;;;;8.60;7.77;;;;;;;;;;2614220;47;21069;-74
2023/10/23 10:06:41;;;;;;;8.23;7.47;;;;;;;;;;2614185;54;20411;-74
2023/10/23 10:09:12;;;;;;;9.10;8.20;;;;;;;;;;2615062;54;20415;-74
2023/10/23 10:11:44;;;;;;;8.70;7.97;;;;;;;;;;2614405;54;20431;-73
2023/10/23 10:14:13;;;;;;;8.63;7.63;;;;;;;;;;2614546;39;20816;-74
2023/10/23 10:16:40;;;;;;;8.37;7.67;;;;;;;;;;2612489;54;21355;-75
2023/10/23 10:19:07;;;;;;;8.33;7.70;;;;;;;;;;2612458;46;21005;-75
2023/10/23 10:21:46;;;;;;;9.60;8.70;;;;;;;;;;2612350;54;20400;-75
2023/10/23 10:24:14;;;;;;;8.00;7.20;;;;;;;;;;2612198;49;20438;-74
2023/10/23 10:26:48;;;;;;;10.77;7.43;;;;;;;;;;2614577;47;20419;-74
2023/10/23 10:29:15;;;;;;;8.13;7.33;;;;;;;;;;2614331;54;20427;-74
2023/10/23 10:32:08;;;;;;;9.50;8.50;;;;;;;;;;2614730;47;20474;-73
2023/10/23 10:34:48;;;;;;;9.33;7.97;;;;;;;;;;2615425;54;20434;-74
2023/10/23 10:37:14;;;;;;;13.63;8.60;;;;;;;;;;2615041;54;20466;-74
2023/10/23 10:39:52;;;;;;;9.07;8.23;;;;;;;;;;2614828;54;20539;-73
2023/10/23 10:42:24;;;;;;;9.80;9.00;;;;;;;;;;2615634;54;21047;-73
2023/10/23 10:44:59;;;;;;;8.10;7.40;;;;;;;;;;2615114;54;20427;-73
2023/10/23 10:47:41;;;;;;;8.00;7.47;;;;;;;;;;2615802;54;20417;-73
2023/10/23 10:50:07;;;;;;;9.10;8.17;;;;;;;;;;2614708;47;20407;-72
2023/10/23 10:52:39;;;;;;;11.13;8.60;;;;;;;;;;2615384;54;20546;-74
2023/10/23 10:55:06;;;;;;;8.30;7.80;;;;;;;;;;2615346;54;20419;-73
2023/10/23 10:57:32;;;;;;;8.20;7.50;;;;;;;;;;2614496;54;20430;-74
2023/10/23 10:59:58;;;;;;;11.00;7.90;;;;;;;;;;2614426;47;20417;-74
2023/10/23 11:02:25;;;;;;;8.47;7.63;;;;;;;;;;2614966;46;20518;-74
2023/10/23 11:04:51;;;;;;;8.90;8.20;;;;;;;;;;2614459;47;20419;-73
2023/10/23 11:07:21;;;;;;;13.40;7.97;;;;;;;;;;2614671;54;21505;-74
2023/10/23 11:09:54;;;;;;;7.90;7.40;;;;;;;;;;2615464;54;20420;-73
2023/10/23 11:12:21;;;;;;;8.87;8.17;;;;;;;;;;2615824;54;20411;-73
2023/10/23 11:14:49;;;;;;;8.87;8.07;;;;;;;;;;2615354;54;20409;-72
2023/10/23 11:17:18;;;;;;;7.37;6.97;;;;;;;;;;2614913;46;20424;-73
2023/10/23 11:19:45;;;;;;;10.10;8.17;;;;;;;;;;2614055;47;20465;-74
2023/10/23 11:22:12;;;;;;;7.20;6.80;;;;;;;;;;2614786;54;20410;-74
2023/10/23 11:24:38;;;;;;;8.40;7.60;;;;;;;;;;2615281;54;20748;-74
2023/10/23 11:27:05;;;;;;;8.20;6.93;;;;;;;;;;2614099;47;20557;-74
2023/10/23 11:29:40;;;;;;;7.90;7.30;;;;;;;;;;2615585;54;20415;-74
2023/10/23 11:32:07;;;;;;;7.97;7.37;;;;;;;;;;2615210;54;20419;-74
2023/10/23 11:34:36;;;;;;;10.67;7.43;;;;;;;;;;2614681;54;20440;-75
2023/10/23 11:37:02;;;;;;;8.17;7.50;;;;;;;;;;2612062;54;20560;-75
2023/10/23 11:39:29;;;;;;;8.53;7.20;;;;;;;;;;2612342;54;20605;-75
2023/10/23 11:41:56;;;;;;;7.67;7.17;;;;;;;;;;2612530;54;20398;-75
2023/10/23 11:44:23;;;;;;;7.33;6.60;;;;;;;;;;2613005;31;20850;-75
2023/10/23 11:46:49;;;;;;;10.13;7.70;;;;;;;;;;2612019;54;20426;-75
2023/10/23 11:49:19;;;;;;;8.90;8.13;;;;;;;;;;2611393;54;21037;-75
2023/10/23 11:51:45;;;;;;;13.37;12.00;;;;;;;;;;2611711;54;20431;-75
2023/10/23 11:54:11;;;;;;;17.43;13.10;;;;;;;;;;2612154;54;20416;-75
2023/10/23 11:56:37;;;;;;;25.60;19.40;;;;;;;;;;2612617;54;20451;-76
2023/10/23 11:59:04;;;;;;;25.40;20.60;;;;;;;;;;2612165;54;20412;-75
2023/10/23 12:01:30;;;;;;;17.13;15.37;;;;;;;;;;2611822;54;20483;-75
2023/10/23 12:03:56;;;;;;;19.23;15.00;;;;;;;;;;2611539;54;20428;-75
2023/10/23 12:06:23;;;;;;;14.47;11.20;;;;;;;;;;2611909;54;21505;-74
2023/10/23 12:08:49;;;;;;;20.67;17.40;;;;;;;;;;2611543;54;20405;-74
2023/10/23 12:11:15;;;;;;;24.23;21.73;;;;;;;;;;2610995;47;20974;-74
2023/10/23 12:13:41;;;;;;;28.73;22.87;;;;;;;;;;2612011;54;20992;-73
2023/10/23 12:16:09;;;;;;;33.63;28.67;;;;;;;;;;2612383;39;20780;-73
2023/10/23 12:18:36;;;;;;;37.20;29.17;;;;;;;;;;2611195;47;20412;-74
2023/10/23 12:21:05;;;;;;;24.60;19.80;;;;;;;;;;2611270;54;20411;-73
2023/10/23 12:23:31;;;;;;;21.30;17.50;;;;;;;;;;2612168;54;20378;-74
2023/10/23 12:25:57;;;;;;;29.37;18.20;;;;;;;;;;2612185;54;20519;-73
2023/10/23 12:28:23;;;;;;;21.50;17.60;;;;;;;;;;2611309;47;20436;-73
2023/10/23 12:30:50;;;;;;;15.37;11.80;;;;;;;;;;2611930;54;20402;-74
2023/10/23 12:33:16;;;;;;;12.50;11.23;;;;;;;;;;2610969;54;20434;-74
2023/10/23 12:35:43;;;;;;;9.43;8.63;;;;;;;;;;2612132;54;20417;-74
2023/10/23 12:38:10;;;;;;;7.53;6.83;;;;;;;;;;2611950;54;20460;-73
2023/10/23 12:40:42;;;;;;;6.90;6.50;;;;;;;;;;2612289;39;20838;-73
2023/10/23 12:43:09;;;;;;;8.30;7.70;;;;;;;;;;2611998;54;20426;-73
2023/10/23 12:45:35;;;;;;;7.47;6.80;;;;;;;;;;2613175;51;20433;-74
2023/10/23 12:48:02;;;;;;;8.27;7.67;;;;;;;;;;2615017;54;20464;-74
2023/10/23 12:50:31;;;;;;;8.07;7.47;;;;;;;;;;2614459;54;20420;-74
2023/10/23 12:52:59;;;;;;;6.80;6.40;;;;;;;;;;2614695;54;20409;-75
2023/10/23 12:55:35;;;;;;;6.87;6.27;;;;;;;;;;2615033;54;20440;-74
2023/10/23 12:58:05;;;;;;;7.60;7.10;;;;;;;;;;2615908;54;20435;-74
2023/10/23 13:00:31;;;;;;;8.40;7.70;;;;;;;;;;2614519;54;20403;-74
2023/10/23 13:03:07;;;;;;;7.20;6.73;;;;;;;;;;2615151;47;20400;-74
2023/10/23 13:05:35;;;;;;;7.87;7.27;;;;;;;;;;2615441;54;20489;-75
2023/10/23 13:08:01;;;;;;;8.00;7.00;;;;;;;;;;2615590;54;20539;-73
2023/10/23 13:10:41;;;;;;;9.80;7.03;;;;;;;;;;2615702;31;20890;-73
2023/10/23 13:13:07;;;;;;;10.20;7.53;;;;;;;;;;2615570;54;20423;-73
2023/10/23 13:15:33;;;;;;;8.07;7.37;;;;;;;;;;2613356;47;20417;-74
2023/10/23 13:18:01;;;;;;;7.07;6.47;;;;;;;;;;2611926;54;20387;-74
2023/10/23 13:20:27;;;;;;;6.97;6.23;;;;;;;;;;2611891;54;20413;-75
2023/10/23 13:22:53;;;;;;;6.90;6.30;;;;;;;;;;2611996;39;20837;-75
2023/10/23 13:25:20;;;;;;;5.90;5.60;;;;;;;;;;2611100;54;20450;-74
2023/10/23 13:27:46;;;;;;;7.57;6.87;;;;;;;;;;2611106;54;20448;-74
2023/10/23 13:30:12;;;;;;;6.00;5.70;;;;;;;;;;2611764;54;20427;-75
2023/10/23 13:32:39;;;;;;;6.40;5.90;;;;;;;;;;2611793;54;20481;-74
2023/10/23 13:35:07;;;;;;;6.80;6.17;;;;;;;;;;2611792;54;20419;-75
2023/10/23 13:37:32;;;;;;;6.17;5.77;;;;;;;;;;2611078;54;20418;-75
2023/10/23 13:39:59;;;;;;;9.13;6.50;;;;;;;;;;2610754;54;21031;-76
2023/10/23 13:42:25;;;;;;;7.07;6.57;;;;;;;;;;2612152;39;21023;-75
2023/10/23 13:44:51;;;;;;;7.30;6.80;;;;;;;;;;2611850;54;20970;-75
2023/10/23 13:47:17;;;;;;;8.17;7.47;;;;;;;;;;2611869;54;20404;-75
2023/10/23 13:49:43;;;;;;;8.37;7.77;;;;;;;;;;2612228;54;20429;-75
2023/10/23 13:52:09;;;;;;;6.97;6.47;;;;;;;;;;2612524;54;21098;-75
2023/10/23 13:54:35;;;;;;;6.87;6.37;;;;;;;;;;2611684;54;20419;-75
2023/10/23 13:57:02;;;;;;;7.00;6.50;;;;;;;;;;2612926;54;21084;-73
2023/10/23 13:59:28;;;;;;;7.53;7.00;;;;;;;;;;2612670;54;20436;-75
2023/10/23 14:01:54;;;;;;;6.37;6.07;;;;;;;;;;2612629;54;20406;-72
2023/10/23 14:04:20;;;;;;;6.73;6.33;;;;;;;;;;2612539;54;20390;-73
2023/10/23 14:06:46;;;;;;;6.77;6.37;;;;;;;;;;2612255;54;20387;-75
2023/10/23 14:09:12;;;;;;;7.30;6.90;;;;;;;;;;2611971;54;20383;-75
2023/10/23 14:11:38;;;;;;;6.67;6.37;;;;;;;;;;2612121;54;20571;-75
2023/10/23 14:14:04;;;;;;;7.20;6.80;;;;;;;;;;2611887;54;20415;-76
2023/10/23 14:16:30;;;;;;;9.57;7.90;;;;;;;;;;2612156;54;20450;-75
2023/10/23 14:18:57;;;;;;;6.90;6.50;;;;;;;;;;2612640;54;20455;-76
2023/10/23 14:21:23;;;;;;;7.10;6.47;;;;;;;;;;2612152;54;20425;-75
2023/10/23 14:23:49;;;;;;;7.30;6.80;;;;;;;;;;2613380;31;20884;-74
2023/10/23 14:26:15;;;;;;;8.07;7.60;;;;;;;;;;2612073;54;20420;-72
2023/10/23 14:28:42;;;;;;;7.30;6.70;;;;;;;;;;2612652;54;20423;-74
2023/10/23 14:31:08;;;;;;;7.23;6.63;;;;;;;;;;2612548;54;20510;-72
2023/10/23 14:33:34;;;;;;;6.50;6.10;;;;;;;;;;2612576;54;21281;-72
2023/10/23 14:36:03;;;;;;;6.17;5.73;;;;;;;;;;2613086;54;20426;-72
2023/10/23 14:38:29;;;;;;;7.70;7.20;;;;;;;;;;2612474;39;20880;-74
2023/10/23 14:41:03;;;;;;;7.13;6.60;;;;;;;;;;2612767;54;20399;-72
2023/10/23 14:43:31;;;;;;;7.63;6.20;;;;;;;;;;2612829;54;20459;-72
2023/10/23 14:45:57;;;;;;;7.40;6.80;;;;;;;;;;2612697;54;20416;-75